This is the latest recevied weather packets stored in our database for station/object DG8RAD-1. If no packets are shown the sender has not sent any weather packets the latest 1 day(s).
| Time | Temp. | Humidity | Pressure | Rain* | Wind** | Luminosity | Snow |
|---|---|---|---|---|---|---|---|
| 1778009405 | 22.78° C | 39% | 1010 hPa | 0 mm | 0 m/s | - | - |
| 1778008505 | 23.33° C | 38% | 1009 hPa | 0 mm | 0 m/s | - | - |
| 1778007605 | 23.33° C | 37% | 1009 hPa | 0 mm | 0 m/s | - | - |
| 1778006705 | 23.33° C | 37% | 1009 hPa | 0 mm | 0 m/s | - | - |
| 1778005805 | 23.33° C | 36% | 1009 hPa | 0 mm | 0 m/s | - | - |
| 1778004905 | 23.89° C | 35% | 1009 hPa | 0 mm | 0 m/s | - | - |
| 1778004005 | 23.33° C | 36% | 1009 hPa | 0 mm | 0 m/s | - | - |
| 1778003105 | 23.89° C | 34% | 1009 hPa | 0 mm | 0 m/s | - | - |
| 1778002205 | 24.44° C | 32% | 1009 hPa | 0 mm | 0 m/s | - | - |
| 1778001305 | 25° C | 33% | 1009 hPa | 0 mm | 0 m/s | - | - |
| 1778000411 | 25.56° C | 33% | 1009 hPa | 0 mm | 0 m/s | - | - |
| 1777999505 | 26.11° C | 33% | 1009 hPa | 0 mm | 0 m/s | - | - |
| 1777998605 | 26.11° C | 35% | 1009 hPa | 0 mm | 0 m/s | - | - |
| 1777997705 | 27.78° C | 34% | 1009 hPa | 0 mm | 0 m/s | - | - |
| 1777996805 | 31.67° C | 29% | 1009 hPa | 0 mm | 0 m/s | - | - |
| 1777995905 | 25.56° C | 38% | 1009 hPa | 0 mm | 0 m/s | - | - |
| 1777995005 | 25.56° C | 37% | 1009 hPa | 0 mm | 0 m/s | - | - |
| 1777994105 | 26.11° C | 37% | 1009 hPa | 0 mm | 0 m/s | - | - |
| 1777993205 | 26.11° C | 36% | 1009 hPa | 0 mm | 0 m/s | - | - |
| 1777992305 | 26.11° C | 33% | 1009 hPa | 0 mm | 0 m/s | - | - |
| 1777991405 | 26.67° C | 29% | 1009 hPa | 0 mm | 0 m/s | - | - |
| 1777990505 | 26.67° C | 27% | 1009 hPa | 0 mm | 0 m/s | - | - |
| 1777989605 | 26.67° C | 27% | 1009 hPa | 0 mm | 0 m/s | - | - |
| 1777988705 | 27.78° C | 25% | 1008 hPa | 0 mm | 0 m/s | - | - |
| 1777987805 | 28.33° C | 24% | 1008 hPa | 0 mm | 0 m/s | - | - |
* Rain latest hour (hover to see other rain measurements)
** Current wind speed in m/s (hover to see current wind gust speed)